sensor_id;sensor_type;location;lat;lon;timestamp;P1;durP1;ratioP1;P2;durP2;ratioP2
20251;SDS011;10284;58.364;15.550;2022-08-06T00:01:50;4.85;;;1.40;;
20251;SDS011;10284;58.364;15.550;2022-08-06T00:04:16;4.65;;;1.00;;
20251;SDS011;10284;58.364;15.550;2022-08-06T00:06:42;10.52;;;1.45;;
20251;SDS011;10284;58.364;15.550;2022-08-06T00:09:07;4.00;;;1.20;;
20251;SDS011;10284;58.364;15.550;2022-08-06T00:11:33;4.68;;;1.70;;
20251;SDS011;10284;58.364;15.550;2022-08-06T00:13:58;6.93;;;1.55;;
20251;SDS011;10284;58.364;15.550;2022-08-06T00:16:24;4.05;;;1.35;;
20251;SDS011;10284;58.364;15.550;2022-08-06T00:18:50;10.60;;;1.88;;
20251;SDS011;10284;58.364;15.550;2022-08-06T00:21:15;6.25;;;1.63;;
20251;SDS011;10284;58.364;15.550;2022-08-06T00:23:41;4.15;;;1.40;;
20251;SDS011;10284;58.364;15.550;2022-08-06T00:26:06;4.70;;;1.48;;
20251;SDS011;10284;58.364;15.550;2022-08-06T00:28:32;5.50;;;1.30;;
20251;SDS011;10284;58.364;15.550;2022-08-06T00:30:58;4.63;;;1.58;;
20251;SDS011;10284;58.364;15.550;2022-08-06T00:33:24;4.13;;;1.05;;
20251;SDS011;10284;58.364;15.550;2022-08-06T00:35:49;7.07;;;1.70;;
20251;SDS011;10284;58.364;15.550;2022-08-06T00:38:15;5.05;;;1.58;;
20251;SDS011;10284;58.364;15.550;2022-08-06T00:40:41;4.38;;;1.55;;
20251;SDS011;10284;58.364;15.550;2022-08-06T00:43:06;4.95;;;1.42;;
20251;SDS011;10284;58.364;15.550;2022-08-06T00:45:32;6.32;;;1.75;;
20251;SDS011;10284;58.364;15.550;2022-08-06T00:47:59;7.63;;;1.70;;
20251;SDS011;10284;58.364;15.550;2022-08-06T00:50:25;10.15;;;1.63;;
20251;SDS011;10284;58.364;15.550;2022-08-06T00:52:51;8.23;;;1.67;;
20251;SDS011;10284;58.364;15.550;2022-08-06T00:55:16;9.07;;;1.70;;
20251;SDS011;10284;58.364;15.550;2022-08-06T00:57:42;7.00;;;1.85;;
20251;SDS011;10284;58.364;15.550;2022-08-06T01:00:08;7.03;;;2.03;;
20251;SDS011;10284;58.364;15.550;2022-08-06T01:02:34;5.15;;;1.55;;
20251;SDS011;10284;58.364;15.550;2022-08-06T01:04:59;5.15;;;1.88;;
20251;SDS011;10284;58.364;15.550;2022-08-06T01:07:25;6.72;;;1.52;;
20251;SDS011;10284;58.364;15.550;2022-08-06T01:09:50;6.72;;;1.88;;
20251;SDS011;10284;58.364;15.550;2022-08-06T01:12:16;3.42;;;1.52;;
20251;SDS011;10284;58.364;15.550;2022-08-06T01:14:42;8.40;;;1.70;;
20251;SDS011;10284;58.364;15.550;2022-08-06T01:17:30;6.15;;;1.98;;
20251;SDS011;10284;58.364;15.550;2022-08-06T01:20:10;14.70;;;2.45;;
20251;SDS011;10284;58.364;15.550;2022-08-06T01:28:25;7.18;;;1.98;;
20251;SDS011;10284;58.364;15.550;2022-08-06T01:30:54;9.47;;;1.80;;
20251;SDS011;10284;58.364;15.550;2022-08-06T01:33:32;4.82;;;1.90;;
20251;SDS011;10284;58.364;15.550;2022-08-06T01:36:02;11.45;;;2.20;;
20251;SDS011;10284;58.364;15.550;2022-08-06T01:38:34;8.10;;;2.22;;
20251;SDS011;10284;58.364;15.550;2022-08-06T01:41:04;5.25;;;1.90;;
20251;SDS011;10284;58.364;15.550;2022-08-06T01:43:32;8.35;;;2.00;;
20251;SDS011;10284;58.364;15.550;2022-08-06T01:46:00;6.07;;;2.10;;
20251;SDS011;10284;58.364;15.550;2022-08-06T01:48:26;7.47;;;2.35;;
20251;SDS011;10284;58.364;15.550;2022-08-06T01:50:54;6.53;;;1.80;;
20251;SDS011;10284;58.364;15.550;2022-08-06T01:53:32;11.27;;;2.35;;
20251;SDS011;10284;58.364;15.550;2022-08-06T01:56:01;7.82;;;1.92;;
20251;SDS011;10284;58.364;15.550;2022-08-06T01:58:32;8.10;;;2.03;;
20251;SDS011;10284;58.364;15.550;2022-08-06T02:01:00;7.82;;;2.08;;
20251;SDS011;10284;58.364;15.550;2022-08-06T02:03:31;9.55;;;2.70;;
20251;SDS011;10284;58.364;15.550;2022-08-06T02:05:58;8.38;;;2.10;;
20251;SDS011;10284;58.364;15.550;2022-08-06T02:08:26;9.27;;;2.30;;
20251;SDS011;10284;58.364;15.550;2022-08-06T02:10:54;12.70;;;2.75;;
20251;SDS011;10284;58.364;15.550;2022-08-06T02:13:21;10.57;;;2.45;;
20251;SDS011;10284;58.364;15.550;2022-08-06T02:15:48;10.23;;;2.53;;
20251;SDS011;10284;58.364;15.550;2022-08-06T02:18:15;8.30;;;2.50;;
20251;SDS011;10284;58.364;15.550;2022-08-06T02:20:46;8.55;;;1.95;;
20251;SDS011;10284;58.364;15.550;2022-08-06T02:23:15;10.20;;;2.30;;
20251;SDS011;10284;58.364;15.550;2022-08-06T02:25:43;6.30;;;2.58;;
20251;SDS011;10284;58.364;15.550;2022-08-06T02:28:11;8.00;;;2.33;;
20251;SDS011;10284;58.364;15.550;2022-08-06T02:30:38;8.82;;;2.00;;
20251;SDS011;10284;58.364;15.550;2022-08-06T02:33:06;7.45;;;2.53;;
20251;SDS011;10284;58.364;15.550;2022-08-06T02:35:32;9.13;;;2.75;;
20251;SDS011;10284;58.364;15.550;2022-08-06T02:38:11;8.15;;;2.20;;
20251;SDS011;10284;58.364;15.550;2022-08-06T02:40:44;7.13;;;2.20;;
20251;SDS011;10284;58.364;15.550;2022-08-06T02:43:29;10.65;;;2.45;;
20251;SDS011;10284;58.364;15.550;2022-08-06T02:45:59;10.55;;;2.80;;
20251;SDS011;10284;58.364;15.550;2022-08-06T02:48:40;10.20;;;2.85;;
20251;SDS011;10284;58.364;15.550;2022-08-06T02:51:10;7.90;;;2.40;;
20251;SDS011;10284;58.364;15.550;2022-08-06T02:53:44;8.35;;;2.60;;
20251;SDS011;10284;58.364;15.550;2022-08-06T02:56:16;5.28;;;2.10;;
20251;SDS011;10284;58.364;15.550;2022-08-06T02:58:43;7.38;;;2.00;;
20251;SDS011;10284;58.364;15.550;2022-08-06T03:01:11;11.30;;;2.70;;
20251;SDS011;10284;58.364;15.550;2022-08-06T03:03:40;11.45;;;2.25;;
20251;SDS011;10284;58.364;15.550;2022-08-06T03:06:08;7.85;;;2.40;;
20251;SDS011;10284;58.364;15.550;2022-08-06T03:08:34;7.97;;;2.28;;
20251;SDS011;10284;58.364;15.550;2022-08-06T03:11:00;9.80;;;2.20;;
20251;SDS011;10284;58.364;15.550;2022-08-06T03:13:27;7.45;;;2.15;;
20251;SDS011;10284;58.364;15.550;2022-08-06T03:15:53;13.60;;;2.50;;
20251;SDS011;10284;58.364;15.550;2022-08-06T03:18:18;8.38;;;2.35;;
20251;SDS011;10284;58.364;15.550;2022-08-06T03:20:44;15.75;;;2.45;;
20251;SDS011;10284;58.364;15.550;2022-08-06T03:23:11;7.10;;;2.58;;
20251;SDS011;10284;58.364;15.550;2022-08-06T03:25:38;9.82;;;2.58;;
20251;SDS011;10284;58.364;15.550;2022-08-06T03:28:04;10.10;;;2.17;;
20251;SDS011;10284;58.364;15.550;2022-08-06T03:30:30;9.60;;;2.30;;
20251;SDS011;10284;58.364;15.550;2022-08-06T03:32:56;15.65;;;2.40;;
20251;SDS011;10284;58.364;15.550;2022-08-06T03:35:22;9.27;;;2.35;;
20251;SDS011;10284;58.364;15.550;2022-08-06T03:37:48;8.30;;;2.47;;
20251;SDS011;10284;58.364;15.550;2022-08-06T03:40:14;9.48;;;2.28;;
20251;SDS011;10284;58.364;15.550;2022-08-06T03:42:40;6.53;;;2.30;;
20251;SDS011;10284;58.364;15.550;2022-08-06T03:45:05;8.10;;;2.35;;
20251;SDS011;10284;58.364;15.550;2022-08-06T03:47:33;8.55;;;2.05;;
20251;SDS011;10284;58.364;15.550;2022-08-06T03:50:45;9.55;;;2.50;;
20251;SDS011;10284;58.364;15.550;2022-08-06T03:52:56;8.93;;;2.50;;
20251;SDS011;10284;58.364;15.550;2022-08-06T03:55:28;9.85;;;1.70;;
20251;SDS011;10284;58.364;15.550;2022-08-06T03:57:57;9.02;;;2.38;;
20251;SDS011;10284;58.364;15.550;2022-08-06T04:00:25;5.40;;;2.55;;
20251;SDS011;10284;58.364;15.550;2022-08-06T04:02:52;8.88;;;1.98;;
20251;SDS011;10284;58.364;15.550;2022-08-06T04:05:23;9.50;;;2.20;;
20251;SDS011;10284;58.364;15.550;2022-08-06T04:07:54;11.57;;;2.60;;
20251;SDS011;10284;58.364;15.550;2022-08-06T04:10:21;9.93;;;2.10;;
20251;SDS011;10284;58.364;15.550;2022-08-06T04:12:48;5.50;;;1.60;;
20251;SDS011;10284;58.364;15.550;2022-08-06T04:15:14;7.03;;;1.80;;
20251;SDS011;10284;58.364;15.550;2022-08-06T04:17:40;11.40;;;2.05;;
20251;SDS011;10284;58.364;15.550;2022-08-06T04:20:08;11.50;;;2.00;;
20251;SDS011;10284;58.364;15.550;2022-08-06T04:22:35;8.15;;;1.90;;
20251;SDS011;10284;58.364;15.550;2022-08-06T04:25:02;4.38;;;1.85;;
20251;SDS011;10284;58.364;15.550;2022-08-06T04:27:28;9.20;;;2.20;;
20251;SDS011;10284;58.364;15.550;2022-08-06T04:29:54;7.97;;;1.77;;
20251;SDS011;10284;58.364;15.550;2022-08-06T04:32:22;8.63;;;1.80;;
20251;SDS011;10284;58.364;15.550;2022-08-06T04:34:48;8.48;;;2.10;;
20251;SDS011;10284;58.364;15.550;2022-08-06T04:37:13;7.55;;;2.28;;
20251;SDS011;10284;58.364;15.550;2022-08-06T04:39:39;8.73;;;2.10;;
20251;SDS011;10284;58.364;15.550;2022-08-06T04:42:05;9.25;;;1.95;;
20251;SDS011;10284;58.364;15.550;2022-08-06T04:44:31;9.13;;;2.03;;
20251;SDS011;10284;58.364;15.550;2022-08-06T04:46:56;7.10;;;1.35;;
20251;SDS011;10284;58.364;15.550;2022-08-06T04:49:22;9.30;;;1.88;;
20251;SDS011;10284;58.364;15.550;2022-08-06T04:51:48;4.75;;;2.05;;
20251;SDS011;10284;58.364;15.550;2022-08-06T04:54:14;6.30;;;1.65;;
20251;SDS011;10284;58.364;15.550;2022-08-06T04:56:40;11.07;;;1.65;;
20251;SDS011;10284;58.364;15.550;2022-08-06T04:59:06;10.30;;;2.67;;
20251;SDS011;10284;58.364;15.550;2022-08-06T05:01:32;4.47;;;1.30;;
20251;SDS011;10284;58.364;15.550;2022-08-06T05:03:57;8.77;;;1.50;;
20251;SDS011;10284;58.364;15.550;2022-08-06T05:06:31;8.43;;;1.80;;
20251;SDS011;10284;58.364;15.550;2022-08-06T05:09:11;10.05;;;1.50;;
20251;SDS011;10284;58.364;15.550;2022-08-06T05:11:41;9.75;;;1.52;;
20251;SDS011;10284;58.364;15.550;2022-08-06T05:14:20;8.65;;;1.90;;
20251;SDS011;10284;58.364;15.550;2022-08-06T05:16:49;4.80;;;1.60;;
20251;SDS011;10284;58.364;15.550;2022-08-06T05:24:38;10.70;;;1.60;;
20251;SDS011;10284;58.364;15.550;2022-08-06T05:27:04;4.70;;;1.40;;
20251;SDS011;10284;58.364;15.550;2022-08-06T05:29:30;7.50;;;1.48;;
20251;SDS011;10284;58.364;15.550;2022-08-06T05:31:59;6.53;;;1.20;;
20251;SDS011;10284;58.364;15.550;2022-08-06T05:34:24;4.18;;;1.27;;
20251;SDS011;10284;58.364;15.550;2022-08-06T05:36:50;4.28;;;1.05;;
20251;SDS011;10284;58.364;15.550;2022-08-06T05:39:15;7.50;;;1.58;;
20251;SDS011;10284;58.364;15.550;2022-08-06T05:41:41;5.15;;;1.20;;
20251;SDS011;10284;58.364;15.550;2022-08-06T05:44:07;5.53;;;1.02;;
20251;SDS011;10284;58.364;15.550;2022-08-06T05:46:34;7.63;;;1.17;;
20251;SDS011;10284;58.364;15.550;2022-08-06T05:49:06;4.10;;;1.20;;
20251;SDS011;10284;58.364;15.550;2022-08-06T05:54:30;6.28;;;0.95;;
20251;SDS011;10284;58.364;15.550;2022-08-06T05:57:05;3.15;;;1.13;;
20251;SDS011;10284;58.364;15.550;2022-08-06T05:59:46;3.10;;;0.90;;
20251;SDS011;10284;58.364;15.550;2022-08-06T06:02:16;5.47;;;1.10;;
20251;SDS011;10284;58.364;15.550;2022-08-06T06:04:43;4.03;;;0.93;;
20251;SDS011;10284;58.364;15.550;2022-08-06T06:07:11;5.32;;;0.90;;
20251;SDS011;10284;58.364;15.550;2022-08-06T06:09:37;6.40;;;1.08;;
20251;SDS011;10284;58.364;15.550;2022-08-06T06:12:03;5.97;;;0.90;;
20251;SDS011;10284;58.364;15.550;2022-08-06T06:14:40;2.25;;;0.50;;
20251;SDS011;10284;58.364;15.550;2022-08-06T06:22:33;3.60;;;0.52;;
20251;SDS011;10284;58.364;15.550;2022-08-06T06:25:05;5.10;;;0.60;;
20251;SDS011;10284;58.364;15.550;2022-08-06T06:27:38;3.25;;;0.65;;
20251;SDS011;10284;58.364;15.550;2022-08-06T06:30:56;3.83;;;0.80;;
20251;SDS011;10284;58.364;15.550;2022-08-06T06:33:24;2.55;;;0.55;;
20251;SDS011;10284;58.364;15.550;2022-08-06T06:35:52;5.20;;;0.80;;
20251;SDS011;10284;58.364;15.550;2022-08-06T06:41:32;2.65;;;0.95;;
20251;SDS011;10284;58.364;15.550;2022-08-06T06:51:52;3.20;;;0.70;;
20251;SDS011;10284;58.364;15.550;2022-08-06T06:54:27;1.17;;;0.52;;
20251;SDS011;10284;58.364;15.550;2022-08-06T06:56:57;4.28;;;0.70;;
20251;SDS011;10284;58.364;15.550;2022-08-06T06:59:29;2.05;;;0.60;;
20251;SDS011;10284;58.364;15.550;2022-08-06T07:01:58;2.38;;;0.73;;
20251;SDS011;10284;58.364;15.550;2022-08-06T07:04:24;1.00;;;0.40;;
20251;SDS011;10284;58.364;15.550;2022-08-06T07:06:50;5.05;;;0.75;;
20251;SDS011;10284;58.364;15.550;2022-08-06T07:09:20;2.78;;;0.60;;
20251;SDS011;10284;58.364;15.550;2022-08-06T07:11:46;2.70;;;0.50;;
20251;SDS011;10284;58.364;15.550;2022-08-06T07:14:13;2.40;;;0.35;;
20251;SDS011;10284;58.364;15.550;2022-08-06T07:16:39;3.28;;;0.50;;
20251;SDS011;10284;58.364;15.550;2022-08-06T07:19:06;1.33;;;0.47;;
20251;SDS011;10284;58.364;15.550;2022-08-06T07:21:32;5.05;;;0.60;;
20251;SDS011;10284;58.364;15.550;2022-08-06T07:23:59;1.50;;;0.52;;
20251;SDS011;10284;58.364;15.550;2022-08-06T07:26:25;5.30;;;0.95;;
20251;SDS011;10284;58.364;15.550;2022-08-06T07:28:51;2.30;;;0.50;;
20251;SDS011;10284;58.364;15.550;2022-08-06T07:31:16;2.95;;;0.57;;
20251;SDS011;10284;58.364;15.550;2022-08-06T07:33:43;3.00;;;0.45;;
20251;SDS011;10284;58.364;15.550;2022-08-06T07:36:10;1.05;;;0.60;;
20251;SDS011;10284;58.364;15.550;2022-08-06T07:38:40;4.57;;;0.60;;
20251;SDS011;10284;58.364;15.550;2022-08-06T07:41:06;4.20;;;0.60;;
20251;SDS011;10284;58.364;15.550;2022-08-06T07:43:46;2.72;;;0.43;;
20251;SDS011;10284;58.364;15.550;2022-08-06T07:46:16;6.32;;;0.55;;
20251;SDS011;10284;58.364;15.550;2022-08-06T07:49:19;3.22;;;0.60;;
20251;SDS011;10284;58.364;15.550;2022-08-06T07:51:38;3.10;;;0.65;;
20251;SDS011;10284;58.364;15.550;2022-08-06T07:54:07;2.85;;;0.50;;
20251;SDS011;10284;58.364;15.550;2022-08-06T07:56:35;4.78;;;0.50;;
20251;SDS011;10284;58.364;15.550;2022-08-06T07:59:02;4.13;;;0.50;;
20251;SDS011;10284;58.364;15.550;2022-08-06T08:01:28;2.30;;;0.43;;
20251;SDS011;10284;58.364;15.550;2022-08-06T08:03:54;2.47;;;0.57;;
20251;SDS011;10284;58.364;15.550;2022-08-06T08:06:39;3.60;;;0.55;;
20251;SDS011;10284;58.364;15.550;2022-08-06T08:09:14;3.33;;;0.63;;
20251;SDS011;10284;58.364;15.550;2022-08-06T08:11:41;1.73;;;0.43;;
20251;SDS011;10284;58.364;15.550;2022-08-06T08:14:09;3.70;;;0.50;;
20251;SDS011;10284;58.364;15.550;2022-08-06T08:16:35;2.90;;;0.47;;
20251;SDS011;10284;58.364;15.550;2022-08-06T08:19:02;1.90;;;0.50;;
20251;SDS011;10284;58.364;15.550;2022-08-06T08:21:28;1.10;;;0.55;;
20251;SDS011;10284;58.364;15.550;2022-08-06T08:23:54;2.95;;;0.60;;
20251;SDS011;10284;58.364;15.550;2022-08-06T08:26:20;2.05;;;0.40;;
20251;SDS011;10284;58.364;15.550;2022-08-06T08:28:45;3.67;;;0.40;;
20251;SDS011;10284;58.364;15.550;2022-08-06T08:31:12;2.83;;;0.47;;
20251;SDS011;10284;58.364;15.550;2022-08-06T08:33:38;1.17;;;0.30;;
20251;SDS011;10284;58.364;15.550;2022-08-06T08:36:04;1.80;;;0.60;;
20251;SDS011;10284;58.364;15.550;2022-08-06T08:38:30;4.55;;;0.40;;
20251;SDS011;10284;58.364;15.550;2022-08-06T08:41:01;2.47;;;0.50;;
20251;SDS011;10284;58.364;15.550;2022-08-06T08:43:32;2.10;;;0.70;;
20251;SDS011;10284;58.364;15.550;2022-08-06T08:45:59;0.82;;;0.30;;
20251;SDS011;10284;58.364;15.550;2022-08-06T08:48:27;7.57;;;0.80;;
20251;SDS011;10284;58.364;15.550;2022-08-06T08:50:56;2.20;;;0.50;;
20251;SDS011;10284;58.364;15.550;2022-08-06T08:53:32;2.05;;;0.40;;
20251;SDS011;10284;58.364;15.550;2022-08-06T08:56:05;5.85;;;0.47;;
20251;SDS011;10284;58.364;15.550;2022-08-06T08:58:31;2.75;;;0.30;;
20251;SDS011;10284;58.364;15.550;2022-08-06T09:01:01;3.72;;;0.50;;
20251;SDS011;10284;58.364;15.550;2022-08-06T09:03:27;1.55;;;0.30;;
20251;SDS011;10284;58.364;15.550;2022-08-06T09:05:53;1.92;;;0.32;;
20251;SDS011;10284;58.364;15.550;2022-08-06T09:08:18;3.47;;;0.50;;
20251;SDS011;10284;58.364;15.550;2022-08-06T09:10:44;1.80;;;0.40;;
20251;SDS011;10284;58.364;15.550;2022-08-06T09:13:09;2.33;;;0.60;;
20251;SDS011;10284;58.364;15.550;2022-08-06T09:15:34;1.08;;;0.40;;
20251;SDS011;10284;58.364;15.550;2022-08-06T09:18:00;3.15;;;0.50;;
20251;SDS011;10284;58.364;15.550;2022-08-06T09:20:25;2.92;;;0.52;;
20251;SDS011;10284;58.364;15.550;2022-08-06T09:22:51;2.65;;;0.45;;
20251;SDS011;10284;58.364;15.550;2022-08-06T09:28:12;1.60;;;0.40;;
20251;SDS011;10284;58.364;15.550;2022-08-06T09:33:38;1.63;;;0.30;;
20251;SDS011;10284;58.364;15.550;2022-08-06T09:36:23;4.57;;;0.60;;
20251;SDS011;10284;58.364;15.550;2022-08-06T09:38:56;2.20;;;0.43;;
20251;SDS011;10284;58.364;15.550;2022-08-06T09:41:25;3.65;;;0.50;;
20251;SDS011;10284;58.364;15.550;2022-08-06T09:43:53;2.50;;;0.50;;
20251;SDS011;10284;58.364;15.550;2022-08-06T09:46:36;1.80;;;0.60;;
20251;SDS011;10284;58.364;15.550;2022-08-06T09:49:03;7.25;;;0.70;;
20251;SDS011;10284;58.364;15.550;2022-08-06T09:51:29;1.98;;;0.80;;
20251;SDS011;10284;58.364;15.550;2022-08-06T09:53:58;3.63;;;0.40;;
20251;SDS011;10284;58.364;15.550;2022-08-06T09:56:27;0.88;;;0.32;;
20251;SDS011;10284;58.364;15.550;2022-08-06T10:01:25;3.38;;;0.40;;
20251;SDS011;10284;58.364;15.550;2022-08-06T10:03:51;1.77;;;0.32;;
20251;SDS011;10284;58.364;15.550;2022-08-06T10:06:18;2.75;;;0.40;;
20251;SDS011;10284;58.364;15.550;2022-08-06T10:08:47;4.15;;;0.40;;
20251;SDS011;10284;58.364;15.550;2022-08-06T10:11:13;5.32;;;0.47;;
20251;SDS011;10284;58.364;15.550;2022-08-06T10:13:39;1.83;;;0.40;;
20251;SDS011;10284;58.364;15.550;2022-08-06T10:16:15;7.18;;;1.10;;
20251;SDS011;10284;58.364;15.550;2022-08-06T10:18:46;1.63;;;0.50;;
20251;SDS011;10284;58.364;15.550;2022-08-06T10:21:20;1.45;;;0.38;;
20251;SDS011;10284;58.364;15.550;2022-08-06T10:23:50;1.55;;;0.30;;
20251;SDS011;10284;58.364;15.550;2022-08-06T10:26:22;2.80;;;0.60;;
20251;SDS011;10284;58.364;15.550;2022-08-06T10:29:05;1.98;;;0.30;;
20251;SDS011;10284;58.364;15.550;2022-08-06T10:31:32;2.97;;;0.50;;
20251;SDS011;10284;58.364;15.550;2022-08-06T10:34:09;3.25;;;0.50;;
20251;SDS011;10284;58.364;15.550;2022-08-06T10:36:36;3.33;;;0.52;;
20251;SDS011;10284;58.364;15.550;2022-08-06T10:39:04;1.58;;;0.35;;
20251;SDS011;10284;58.364;15.550;2022-08-06T10:41:31;1.92;;;0.40;;
20251;SDS011;10284;58.364;15.550;2022-08-06T10:44:00;2.80;;;0.40;;
20251;SDS011;10284;58.364;15.550;2022-08-06T10:46:26;1.65;;;0.45;;
20251;SDS011;10284;58.364;15.550;2022-08-06T10:48:52;2.97;;;0.50;;
20251;SDS011;10284;58.364;15.550;2022-08-06T10:51:18;3.22;;;0.50;;
20251;SDS011;10284;58.364;15.550;2022-08-06T10:53:45;3.25;;;0.50;;
20251;SDS011;10284;58.364;15.550;2022-08-06T10:56:12;6.63;;;0.68;;
20251;SDS011;10284;58.364;15.550;2022-08-06T10:58:40;3.28;;;0.65;;
20251;SDS011;10284;58.364;15.550;2022-08-06T11:01:10;9.50;;;0.77;;
20251;SDS011;10284;58.364;15.550;2022-08-06T11:15:14;2.92;;;0.43;;
20251;SDS011;10284;58.364;15.550;2022-08-06T11:23:01;4.13;;;0.50;;
20251;SDS011;10284;58.364;15.550;2022-08-06T11:28:03;1.55;;;0.50;;
20251;SDS011;10284;58.364;15.550;2022-08-06T11:30:42;2.95;;;0.50;;
20251;SDS011;10284;58.364;15.550;2022-08-06T11:33:09;1.70;;;0.40;;
20251;SDS011;10284;58.364;15.550;2022-08-06T11:38:02;2.67;;;0.40;;
20251;SDS011;10284;58.364;15.550;2022-08-06T11:54:23;1.02;;;0.30;;
20251;SDS011;10284;58.364;15.550;2022-08-06T12:02:04;2.45;;;1.08;;
20251;SDS011;10284;58.364;15.550;2022-08-06T12:12:32;2.30;;;0.35;;
20251;SDS011;10284;58.364;15.550;2022-08-06T12:15:01;4.53;;;0.40;;
20251;SDS011;10284;58.364;15.550;2022-08-06T12:17:28;2.75;;;0.70;;
20251;SDS011;10284;58.364;15.550;2022-08-06T12:19:54;0.90;;;0.50;;
20251;SDS011;10284;58.364;15.550;2022-08-06T12:22:22;3.55;;;0.60;;
20251;SDS011;10284;58.364;15.550;2022-08-06T12:24:50;0.38;;;0.30;;
20251;SDS011;10284;58.364;15.550;2022-08-06T12:27:19;4.85;;;0.40;;
20251;SDS011;10284;58.364;15.550;2022-08-06T12:29:45;2.50;;;0.40;;
20251;SDS011;10284;58.364;15.550;2022-08-06T12:32:24;2.20;;;0.43;;
20251;SDS011;10284;58.364;15.550;2022-08-06T12:34:56;1.73;;;0.43;;
20251;SDS011;10284;58.364;15.550;2022-08-06T12:37:33;2.10;;;0.40;;
20251;SDS011;10284;58.364;15.550;2022-08-06T12:40:15;1.92;;;0.50;;
20251;SDS011;10284;58.364;15.550;2022-08-06T12:45:26;1.75;;;0.50;;
20251;SDS011;10284;58.364;15.550;2022-08-06T12:47:57;2.25;;;0.52;;
20251;SDS011;10284;58.364;15.550;2022-08-06T12:50:26;5.43;;;0.50;;
20251;SDS011;10284;58.364;15.550;2022-08-06T12:53:11;1.13;;;0.38;;
20251;SDS011;10284;58.364;15.550;2022-08-06T12:55:44;2.95;;;0.40;;
20251;SDS011;10284;58.364;15.550;2022-08-06T12:58:11;4.35;;;0.60;;
20251;SDS011;10284;58.364;15.550;2022-08-06T13:00:39;1.88;;;0.43;;
20251;SDS011;10284;58.364;15.550;2022-08-06T13:03:06;1.17;;;0.40;;
20251;SDS011;10284;58.364;15.550;2022-08-06T13:05:32;1.67;;;0.45;;
20251;SDS011;10284;58.364;15.550;2022-08-06T13:07:58;1.67;;;0.30;;
20251;SDS011;10284;58.364;15.550;2022-08-06T13:10:24;1.83;;;0.40;;
20251;SDS011;10284;58.364;15.550;2022-08-06T13:12:56;1.35;;;0.40;;
20251;SDS011;10284;58.364;15.550;2022-08-06T13:15:23;3.05;;;0.40;;
20251;SDS011;10284;58.364;15.550;2022-08-06T13:18:04;3.80;;;0.68;;
20251;SDS011;10284;58.364;15.550;2022-08-06T13:20:43;2.10;;;0.40;;
20251;SDS011;10284;58.364;15.550;2022-08-06T13:23:10;1.42;;;0.30;;
20251;SDS011;10284;58.364;15.550;2022-08-06T13:25:46;2.75;;;0.52;;
20251;SDS011;10284;58.364;15.550;2022-08-06T13:28:16;2.72;;;0.30;;
20251;SDS011;10284;58.364;15.550;2022-08-06T13:30:42;3.97;;;0.40;;
20251;SDS011;10284;58.364;15.550;2022-08-06T13:33:21;1.40;;;0.40;;
20251;SDS011;10284;58.364;15.550;2022-08-06T13:35:49;1.42;;;0.50;;
20251;SDS011;10284;58.364;15.550;2022-08-06T13:38:35;1.98;;;0.38;;
20251;SDS011;10284;58.364;15.550;2022-08-06T13:41:01;2.20;;;0.30;;
20251;SDS011;10284;58.364;15.550;2022-08-06T13:43:37;1.52;;;0.40;;
20251;SDS011;10284;58.364;15.550;2022-08-06T13:46:08;1.63;;;0.35;;
20251;SDS011;10284;58.364;15.550;2022-08-06T13:48:35;1.35;;;0.55;;
20251;SDS011;10284;58.364;15.550;2022-08-06T13:51:00;3.20;;;0.47;;
20251;SDS011;10284;58.364;15.550;2022-08-06T13:53:26;2.22;;;0.45;;
20251;SDS011;10284;58.364;15.550;2022-08-06T13:55:51;1.85;;;0.50;;
20251;SDS011;10284;58.364;15.550;2022-08-06T13:58:17;1.30;;;0.40;;
20251;SDS011;10284;58.364;15.550;2022-08-06T14:00:42;5.35;;;0.60;;
20251;SDS011;10284;58.364;15.550;2022-08-06T14:03:11;2.40;;;0.40;;
20251;SDS011;10284;58.364;15.550;2022-08-06T14:05:37;1.92;;;0.30;;
20251;SDS011;10284;58.364;15.550;2022-08-06T14:08:02;2.38;;;0.40;;
20251;SDS011;10284;58.364;15.550;2022-08-06T14:10:28;1.70;;;0.30;;
20251;SDS011;10284;58.364;15.550;2022-08-06T14:12:54;2.67;;;0.40;;
20251;SDS011;10284;58.364;15.550;2022-08-06T14:15:38;2.33;;;0.30;;
20251;SDS011;10284;58.364;15.550;2022-08-06T14:18:03;2.03;;;0.20;;
20251;SDS011;10284;58.364;15.550;2022-08-06T14:20:29;3.38;;;0.30;;
20251;SDS011;10284;58.364;15.550;2022-08-06T14:22:54;5.00;;;0.52;;
20251;SDS011;10284;58.364;15.550;2022-08-06T14:25:21;1.02;;;0.22;;
20251;SDS011;10284;58.364;15.550;2022-08-06T14:27:47;1.63;;;0.30;;
20251;SDS011;10284;58.364;15.550;2022-08-06T14:30:12;1.73;;;0.45;;
20251;SDS011;10284;58.364;15.550;2022-08-06T14:32:38;1.63;;;0.40;;
20251;SDS011;10284;58.364;15.550;2022-08-06T14:35:04;3.03;;;0.38;;
20251;SDS011;10284;58.364;15.550;2022-08-06T14:37:30;0.70;;;0.20;;
20251;SDS011;10284;58.364;15.550;2022-08-06T14:39:56;1.23;;;0.28;;
20251;SDS011;10284;58.364;15.550;2022-08-06T14:42:21;3.75;;;0.30;;
20251;SDS011;10284;58.364;15.550;2022-08-06T14:45:05;1.75;;;0.43;;
20251;SDS011;10284;58.364;15.550;2022-08-06T14:47:31;2.22;;;0.20;;
20251;SDS011;10284;58.364;15.550;2022-08-06T14:49:57;1.92;;;0.40;;
20251;SDS011;10284;58.364;15.550;2022-08-06T14:52:23;0.63;;;0.20;;
20251;SDS011;10284;58.364;15.550;2022-08-06T14:54:49;0.63;;;0.20;;
20251;SDS011;10284;58.364;15.550;2022-08-06T14:57:14;1.23;;;0.30;;
20251;SDS011;10284;58.364;15.550;2022-08-06T14:59:40;2.20;;;0.20;;
20251;SDS011;10284;58.364;15.550;2022-08-06T15:02:05;3.22;;;0.32;;
20251;SDS011;10284;58.364;15.550;2022-08-06T15:04:32;2.28;;;0.30;;
20251;SDS011;10284;58.364;15.550;2022-08-06T15:07:03;2.13;;;0.30;;
20251;SDS011;10284;58.364;15.550;2022-08-06T15:09:29;2.55;;;0.35;;
20251;SDS011;10284;58.364;15.550;2022-08-06T15:11:56;1.52;;;0.38;;
20251;SDS011;10284;58.364;15.550;2022-08-06T15:14:22;2.40;;;0.20;;
20251;SDS011;10284;58.364;15.550;2022-08-06T15:16:47;3.28;;;0.40;;
20251;SDS011;10284;58.364;15.550;2022-08-06T15:19:13;0.50;;;0.40;;
20251;SDS011;10284;58.364;15.550;2022-08-06T15:21:38;3.58;;;0.30;;
20251;SDS011;10284;58.364;15.550;2022-08-06T15:24:04;1.88;;;0.40;;
20251;SDS011;10284;58.364;15.550;2022-08-06T15:26:29;2.80;;;0.47;;
20251;SDS011;10284;58.364;15.550;2022-08-06T15:28:55;1.27;;;0.20;;
20251;SDS011;10284;58.364;15.550;2022-08-06T15:31:20;1.13;;;0.25;;
20251;SDS011;10284;58.364;15.550;2022-08-06T15:33:46;1.08;;;0.20;;
20251;SDS011;10284;58.364;15.550;2022-08-06T15:36:12;1.25;;;0.20;;
20251;SDS011;10284;58.364;15.550;2022-08-06T15:38:37;2.92;;;0.40;;
20251;SDS011;10284;58.364;15.550;2022-08-06T15:41:03;1.35;;;0.20;;
20251;SDS011;10284;58.364;15.550;2022-08-06T15:43:30;1.20;;;0.38;;
20251;SDS011;10284;58.364;15.550;2022-08-06T15:45:55;2.28;;;0.60;;
20251;SDS011;10284;58.364;15.550;2022-08-06T15:48:23;0.65;;;0.20;;
20251;SDS011;10284;58.364;15.550;2022-08-06T15:50:50;2.53;;;0.65;;
20251;SDS011;10284;58.364;15.550;2022-08-06T15:53:15;1.65;;;0.20;;
20251;SDS011;10284;58.364;15.550;2022-08-06T15:55:42;2.42;;;0.28;;
20251;SDS011;10284;58.364;15.550;2022-08-06T15:58:07;1.02;;;0.30;;
20251;SDS011;10284;58.364;15.550;2022-08-06T16:00:33;1.27;;;0.30;;
20251;SDS011;10284;58.364;15.550;2022-08-06T16:03:00;2.88;;;0.17;;
20251;SDS011;10284;58.364;15.550;2022-08-06T16:05:25;2.88;;;0.22;;
20251;SDS011;10284;58.364;15.550;2022-08-06T16:07:51;9.02;;;0.68;;
20251;SDS011;10284;58.364;15.550;2022-08-06T16:10:17;1.98;;;0.40;;
20251;SDS011;10284;58.364;15.550;2022-08-06T16:12:42;3.53;;;0.43;;